sensor_id;sensor_type;location;lat;lon;timestamp;temperature;humidity
67101;DHT22;54019;61.746;16.106;2023-03-04T00:00:34;21.50;21.30
67101;DHT22;54019;61.746;16.106;2023-03-04T00:02:59;21.50;21.30
67101;DHT22;54019;61.746;16.106;2023-03-04T00:05:25;21.50;21.10
67101;DHT22;54019;61.746;16.106;2023-03-04T00:07:50;21.60;21.10
67101;DHT22;54019;61.746;16.106;2023-03-04T00:10:16;21.60;21.00
67101;DHT22;54019;61.746;16.106;2023-03-04T00:12:42;21.60;20.90
67101;DHT22;54019;61.746;16.106;2023-03-04T00:15:09;21.60;21.00
67101;DHT22;54019;61.746;16.106;2023-03-04T00:17:34;21.50;21.00
67101;DHT22;54019;61.746;16.106;2023-03-04T00:20:00;21.50;21.00
67101;DHT22;54019;61.746;16.106;2023-03-04T00:22:25;21.50;21.00
67101;DHT22;54019;61.746;16.106;2023-03-04T00:24:51;21.40;20.90
67101;DHT22;54019;61.746;16.106;2023-03-04T00:27:16;21.40;21.00
67101;DHT22;54019;61.746;16.106;2023-03-04T00:29:42;21.40;21.00
67101;DHT22;54019;61.746;16.106;2023-03-04T00:32:09;21.40;21.00
67101;DHT22;54019;61.746;16.106;2023-03-04T00:34:34;21.40;20.90
67101;DHT22;54019;61.746;16.106;2023-03-04T00:37:00;21.40;20.80
67101;DHT22;54019;61.746;16.106;2023-03-04T00:39:26;21.40;20.80
67101;DHT22;54019;61.746;16.106;2023-03-04T00:41:51;21.40;20.70
67101;DHT22;54019;61.746;16.106;2023-03-04T00:44:17;21.50;20.70
67101;DHT22;54019;61.746;16.106;2023-03-04T00:46:42;21.50;20.80
67101;DHT22;54019;61.746;16.106;2023-03-04T00:49:09;21.60;20.70
67101;DHT22;54019;61.746;16.106;2023-03-04T00:51:35;21.60;20.60
67101;DHT22;54019;61.746;16.106;2023-03-04T00:54:00;21.60;20.70
67101;DHT22;54019;61.746;16.106;2023-03-04T00:56:26;21.60;20.50
67101;DHT22;54019;61.746;16.106;2023-03-04T00:58:51;21.50;20.40
67101;DHT22;54019;61.746;16.106;2023-03-04T01:01:17;21.50;20.40
67101;DHT22;54019;61.746;16.106;2023-03-04T01:03:42;21.40;20.30
67101;DHT22;54019;61.746;16.106;2023-03-04T01:06:09;21.40;20.30
67101;DHT22;54019;61.746;16.106;2023-03-04T01:08:35;21.40;20.10
67101;DHT22;54019;61.746;16.106;2023-03-04T01:11:01;21.30;20.40
67101;DHT22;54019;61.746;16.106;2023-03-04T01:13:26;21.30;20.40
67101;DHT22;54019;61.746;16.106;2023-03-04T01:15:52;21.30;20.40
67101;DHT22;54019;61.746;16.106;2023-03-04T01:18:17;21.30;20.40
67101;DHT22;54019;61.746;16.106;2023-03-04T01:20:43;21.40;20.40
67101;DHT22;54019;61.746;16.106;2023-03-04T01:23:10;21.40;20.30
67101;DHT22;54019;61.746;16.106;2023-03-04T01:25:35;21.40;20.30
67101;DHT22;54019;61.746;16.106;2023-03-04T01:28:01;21.50;20.30
67101;DHT22;54019;61.746;16.106;2023-03-04T01:30:27;21.50;20.30
67101;DHT22;54019;61.746;16.106;2023-03-04T01:32:52;21.50;20.20
67101;DHT22;54019;61.746;16.106;2023-03-04T01:35:18;21.50;20.30
67101;DHT22;54019;61.746;16.106;2023-03-04T01:37:43;21.40;20.20
67101;DHT22;54019;61.746;16.106;2023-03-04T01:40:11;21.40;20.30
67101;DHT22;54019;61.746;16.106;2023-03-04T01:42:37;21.40;20.30
67101;DHT22;54019;61.746;16.106;2023-03-04T01:45:03;21.40;20.40
67101;DHT22;54019;61.746;16.106;2023-03-04T01:47:29;21.30;20.30
67101;DHT22;54019;61.746;16.106;2023-03-04T01:49:56;21.30;20.30
67101;DHT22;54019;61.746;16.106;2023-03-04T01:52:22;21.30;20.30
67101;DHT22;54019;61.746;16.106;2023-03-04T01:54:48;21.30;20.30
67101;DHT22;54019;61.746;16.106;2023-03-04T01:57:18;21.40;20.40
67101;DHT22;54019;61.746;16.106;2023-03-04T01:59:44;21.40;20.20
67101;DHT22;54019;61.746;16.106;2023-03-04T02:02:10;21.40;20.20
67101;DHT22;54019;61.746;16.106;2023-03-04T02:04:36;21.40;20.20
67101;DHT22;54019;61.746;16.106;2023-03-04T02:07:02;21.50;20.20
67101;DHT22;54019;61.746;16.106;2023-03-04T02:09:28;21.50;20.20
67101;DHT22;54019;61.746;16.106;2023-03-04T02:11:54;21.50;20.20
67101;DHT22;54019;61.746;16.106;2023-03-04T02:14:21;21.50;20.10
67101;DHT22;54019;61.746;16.106;2023-03-04T02:16:47;21.50;20.10
67101;DHT22;54019;61.746;16.106;2023-03-04T02:19:15;21.40;20.00
67101;DHT22;54019;61.746;16.106;2023-03-04T02:21:43;21.40;20.10
67101;DHT22;54019;61.746;16.106;2023-03-04T02:24:11;21.40;20.10
67101;DHT22;54019;61.746;16.106;2023-03-04T02:26:40;21.30;20.00
67101;DHT22;54019;61.746;16.106;2023-03-04T02:29:06;21.30;20.10
67101;DHT22;54019;61.746;16.106;2023-03-04T02:31:34;21.30;20.10
67101;DHT22;54019;61.746;16.106;2023-03-04T02:34:01;21.30;20.20
67101;DHT22;54019;61.746;16.106;2023-03-04T02:36:27;21.30;20.20
67101;DHT22;54019;61.746;16.106;2023-03-04T02:38:53;21.30;20.10
67101;DHT22;54019;61.746;16.106;2023-03-04T02:41:20;21.30;20.00
67101;DHT22;54019;61.746;16.106;2023-03-04T02:43:48;21.40;20.00
67101;DHT22;54019;61.746;16.106;2023-03-04T02:46:14;21.40;19.90
67101;DHT22;54019;61.746;16.106;2023-03-04T02:48:39;21.50;20.00
67101;DHT22;54019;61.746;16.106;2023-03-04T02:51:05;21.50;20.00
67101;DHT22;54019;61.746;16.106;2023-03-04T02:53:30;21.40;20.30
67101;DHT22;54019;61.746;16.106;2023-03-04T02:55:56;21.40;19.90
67101;DHT22;54019;61.746;16.106;2023-03-04T02:58:21;21.40;20.00
67101;DHT22;54019;61.746;16.106;2023-03-04T03:00:48;21.40;20.00
67101;DHT22;54019;61.746;16.106;2023-03-04T03:03:14;21.30;20.00
67101;DHT22;54019;61.746;16.106;2023-03-04T03:05:40;21.40;20.00
67101;DHT22;54019;61.746;16.106;2023-03-04T03:08:05;21.30;20.00
67101;DHT22;54019;61.746;16.106;2023-03-04T03:10:31;21.30;20.00
67101;DHT22;54019;61.746;16.106;2023-03-04T03:12:57;21.30;20.00
67101;DHT22;54019;61.746;16.106;2023-03-04T03:15:22;21.30;20.00
67101;DHT22;54019;61.746;16.106;2023-03-04T03:17:49;21.30;20.00
67101;DHT22;54019;61.746;16.106;2023-03-04T03:20:15;21.40;19.90
67101;DHT22;54019;61.746;16.106;2023-03-04T03:22:41;21.40;19.90
67101;DHT22;54019;61.746;16.106;2023-03-04T03:25:07;21.40;19.80
67101;DHT22;54019;61.746;16.106;2023-03-04T03:27:33;21.40;19.70
67101;DHT22;54019;61.746;16.106;2023-03-04T03:29:59;21.50;19.70
67101;DHT22;54019;61.746;16.106;2023-03-04T03:32:24;21.50;19.60
67101;DHT22;54019;61.746;16.106;2023-03-04T03:34:51;21.40;19.50
67101;DHT22;54019;61.746;16.106;2023-03-04T03:37:17;21.40;19.50
67101;DHT22;54019;61.746;16.106;2023-03-04T03:39:42;21.40;19.60
67101;DHT22;54019;61.746;16.106;2023-03-04T03:42:08;21.30;19.50
67101;DHT22;54019;61.746;16.106;2023-03-04T03:44:33;21.20;19.50
67101;DHT22;54019;61.746;16.106;2023-03-04T03:46:59;21.20;19.40
67101;DHT22;54019;61.746;16.106;2023-03-04T03:49:25;21.20;19.50
67101;DHT22;54019;61.746;16.106;2023-03-04T03:51:52;21.20;19.70
67101;DHT22;54019;61.746;16.106;2023-03-04T03:54:18;21.30;19.70
67101;DHT22;54019;61.746;16.106;2023-03-04T03:56:43;21.30;19.70
67101;DHT22;54019;61.746;16.106;2023-03-04T03:59:09;21.30;19.60
67101;DHT22;54019;61.746;16.106;2023-03-04T04:01:34;21.40;19.50
67101;DHT22;54019;61.746;16.106;2023-03-04T04:04:00;21.30;19.60
67101;DHT22;54019;61.746;16.106;2023-03-04T04:06:25;21.40;19.60
67101;DHT22;54019;61.746;16.106;2023-03-04T04:08:52;21.50;19.70
67101;DHT22;54019;61.746;16.106;2023-03-04T04:11:18;21.40;19.60
67101;DHT22;54019;61.746;16.106;2023-03-04T04:13:43;21.40;19.60
67101;DHT22;54019;61.746;16.106;2023-03-04T04:16:09;21.40;20.20
67101;DHT22;54019;61.746;16.106;2023-03-04T04:18:35;21.40;19.70
67101;DHT22;54019;61.746;16.106;2023-03-04T04:21:00;21.30;19.70
67101;DHT22;54019;61.746;16.106;2023-03-04T04:23:26;21.30;19.70
67101;DHT22;54019;61.746;16.106;2023-03-04T04:25:54;21.30;19.70
67101;DHT22;54019;61.746;16.106;2023-03-04T04:28:20;21.20;19.80
67101;DHT22;54019;61.746;16.106;2023-03-04T04:30:46;21.20;19.70
67101;DHT22;54019;61.746;16.106;2023-03-04T04:33:11;21.20;19.80
67101;DHT22;54019;61.746;16.106;2023-03-04T04:35:37;21.20;19.80
67101;DHT22;54019;61.746;16.106;2023-03-04T04:38:03;21.20;19.70
67101;DHT22;54019;61.746;16.106;2023-03-04T04:40:28;21.30;19.80
67101;DHT22;54019;61.746;16.106;2023-03-04T04:42:55;21.40;19.80
67101;DHT22;54019;61.746;16.106;2023-03-04T04:45:21;21.40;19.70
67101;DHT22;54019;61.746;16.106;2023-03-04T04:47:46;21.40;19.60
67101;DHT22;54019;61.746;16.106;2023-03-04T04:50:12;21.40;19.70
67101;DHT22;54019;61.746;16.106;2023-03-04T04:52:38;21.40;19.70
67101;DHT22;54019;61.746;16.106;2023-03-04T04:55:03;21.40;19.70
67101;DHT22;54019;61.746;16.106;2023-03-04T04:57:29;21.40;19.70
67101;DHT22;54019;61.746;16.106;2023-03-04T04:59:56;21.30;19.70
67101;DHT22;54019;61.746;16.106;2023-03-04T05:02:22;21.30;19.80
67101;DHT22;54019;61.746;16.106;2023-03-04T05:04:47;21.30;19.80
67101;DHT22;54019;61.746;16.106;2023-03-04T05:07:13;21.30;19.90
67101;DHT22;54019;61.746;16.106;2023-03-04T05:09:38;21.20;19.90
67101;DHT22;54019;61.746;16.106;2023-03-04T05:12:04;21.20;19.80
67101;DHT22;54019;61.746;16.106;2023-03-04T05:14:30;21.20;19.80
67101;DHT22;54019;61.746;16.106;2023-03-04T05:16:57;21.20;19.90
67101;DHT22;54019;61.746;16.106;2023-03-04T05:19:22;21.30;19.90
67101;DHT22;54019;61.746;16.106;2023-03-04T05:21:48;21.30;19.60
67101;DHT22;54019;61.746;16.106;2023-03-04T05:24:13;21.40;19.90
67101;DHT22;54019;61.746;16.106;2023-03-04T05:26:39;21.40;19.90
67101;DHT22;54019;61.746;16.106;2023-03-04T05:29:04;21.40;19.80
67101;DHT22;54019;61.746;16.106;2023-03-04T05:31:30;21.40;19.70
67101;DHT22;54019;61.746;16.106;2023-03-04T05:33:57;21.40;19.60
67101;DHT22;54019;61.746;16.106;2023-03-04T05:36:22;21.40;19.60
67101;DHT22;54019;61.746;16.106;2023-03-04T05:38:48;21.30;19.50
67101;DHT22;54019;61.746;16.106;2023-03-04T05:41:13;21.20;19.40
67101;DHT22;54019;61.746;16.106;2023-03-04T05:43:39;21.20;19.40
67101;DHT22;54019;61.746;16.106;2023-03-04T05:46:04;21.10;19.40
67101;DHT22;54019;61.746;16.106;2023-03-04T05:48:30;21.10;19.30
67101;DHT22;54019;61.746;16.106;2023-03-04T05:50:58;21.10;19.30
67101;DHT22;54019;61.746;16.106;2023-03-04T05:53:24;21.10;19.20
67101;DHT22;54019;61.746;16.106;2023-03-04T05:55:50;21.10;19.20
67101;DHT22;54019;61.746;16.106;2023-03-04T05:58:16;21.20;19.20
67101;DHT22;54019;61.746;16.106;2023-03-04T06:00:42;21.30;19.20
67101;DHT22;54019;61.746;16.106;2023-03-04T06:03:09;21.30;19.20
67101;DHT22;54019;61.746;16.106;2023-03-04T06:05:37;21.20;19.10
67101;DHT22;54019;61.746;16.106;2023-03-04T06:08:05;21.30;19.20
67101;DHT22;54019;61.746;16.106;2023-03-04T06:10:30;21.30;19.00
67101;DHT22;54019;61.746;16.106;2023-03-04T06:12:56;21.30;19.00
67101;DHT22;54019;61.746;16.106;2023-03-04T06:15:21;21.30;19.00
67101;DHT22;54019;61.746;16.106;2023-03-04T06:17:47;21.20;18.90
67101;DHT22;54019;61.746;16.106;2023-03-04T06:20:12;21.20;18.90
67101;DHT22;54019;61.746;16.106;2023-03-04T06:22:38;21.20;18.90
67101;DHT22;54019;61.746;16.106;2023-03-04T06:25:05;21.20;18.90
67101;DHT22;54019;61.746;16.106;2023-03-04T06:27:31;21.10;18.90
67101;DHT22;54019;61.746;16.106;2023-03-04T06:29:57;21.10;19.00
67101;DHT22;54019;61.746;16.106;2023-03-04T06:32:22;21.00;18.90
67101;DHT22;54019;61.746;16.106;2023-03-04T06:34:48;21.10;19.00
67101;DHT22;54019;61.746;16.106;2023-03-04T06:37:13;21.10;18.90
67101;DHT22;54019;61.746;16.106;2023-03-04T06:39:39;21.10;18.90
67101;DHT22;54019;61.746;16.106;2023-03-04T06:42:06;21.10;18.90
67101;DHT22;54019;61.746;16.106;2023-03-04T06:44:31;21.20;19.00
67101;DHT22;54019;61.746;16.106;2023-03-04T06:46:57;21.20;18.50
67101;DHT22;54019;61.746;16.106;2023-03-04T06:49:22;21.20;18.90
67101;DHT22;54019;61.746;16.106;2023-03-04T06:51:48;21.20;18.80
67101;DHT22;54019;61.746;16.106;2023-03-04T06:54:13;21.20;18.80
67101;DHT22;54019;61.746;16.106;2023-03-04T06:56:39;21.20;18.80
67101;DHT22;54019;61.746;16.106;2023-03-04T06:59:06;21.20;18.80
67101;DHT22;54019;61.746;16.106;2023-03-04T07:01:31;21.20;18.80
67101;DHT22;54019;61.746;16.106;2023-03-04T07:03:57;21.10;18.90
67101;DHT22;54019;61.746;16.106;2023-03-04T07:06:24;21.10;18.90
67101;DHT22;54019;61.746;16.106;2023-03-04T07:08:50;21.10;18.90
67101;DHT22;54019;61.746;16.106;2023-03-04T07:11:16;21.00;18.90
67101;DHT22;54019;61.746;16.106;2023-03-04T07:13:42;21.00;18.90
67101;DHT22;54019;61.746;16.106;2023-03-04T07:16:10;21.00;18.90
67101;DHT22;54019;61.746;16.106;2023-03-04T07:18:36;21.10;18.90
67101;DHT22;54019;61.746;16.106;2023-03-04T07:21:02;21.10;18.90
67101;DHT22;54019;61.746;16.106;2023-03-04T07:23:27;21.20;18.80
67101;DHT22;54019;61.746;16.106;2023-03-04T07:25:53;21.30;18.80
67101;DHT22;54019;61.746;16.106;2023-03-04T07:28:18;21.30;18.80
67101;DHT22;54019;61.746;16.106;2023-03-04T07:30:44;21.30;18.70
67101;DHT22;54019;61.746;16.106;2023-03-04T07:33:11;21.20;18.60
67101;DHT22;54019;61.746;16.106;2023-03-04T07:35:37;21.20;18.60
67101;DHT22;54019;61.746;16.106;2023-03-04T07:38:02;21.30;18.70
67101;DHT22;54019;61.746;16.106;2023-03-04T07:40:28;21.20;18.80
67101;DHT22;54019;61.746;16.106;2023-03-04T07:42:53;21.30;19.00
67101;DHT22;54019;61.746;16.106;2023-03-04T07:45:19;21.30;19.10
67101;DHT22;54019;61.746;16.106;2023-03-04T07:47:45;21.30;19.30
67101;DHT22;54019;61.746;16.106;2023-03-04T07:50:13;21.20;19.20
67101;DHT22;54019;61.746;16.106;2023-03-04T07:52:39;21.20;19.40
67101;DHT22;54019;61.746;16.106;2023-03-04T07:55:05;21.30;19.50
67101;DHT22;54019;61.746;16.106;2023-03-04T07:57:30;21.30;19.50
67101;DHT22;54019;61.746;16.106;2023-03-04T07:59:56;21.30;19.50
67101;DHT22;54019;61.746;16.106;2023-03-04T08:02:21;21.30;19.40
67101;DHT22;54019;61.746;16.106;2023-03-04T08:04:47;21.40;19.20
67101;DHT22;54019;61.746;16.106;2023-03-04T08:07:14;21.50;19.10
67101;DHT22;54019;61.746;16.106;2023-03-04T08:09:39;21.50;19.30
67101;DHT22;54019;61.746;16.106;2023-03-04T08:12:05;21.60;19.20
67101;DHT22;54019;61.746;16.106;2023-03-04T08:14:31;21.70;19.10
67101;DHT22;54019;61.746;16.106;2023-03-04T08:16:56;21.80;19.00
67101;DHT22;54019;61.746;16.106;2023-03-04T08:19:22;21.80;18.90
67101;DHT22;54019;61.746;16.106;2023-03-04T08:21:47;21.90;18.80
67101;DHT22;54019;61.746;16.106;2023-03-04T08:24:14;21.90;18.80
67101;DHT22;54019;61.746;16.106;2023-03-04T08:26:40;21.90;18.70
67101;DHT22;54019;61.746;16.106;2023-03-04T08:29:06;21.90;18.60
67101;DHT22;54019;61.746;16.106;2023-03-04T08:31:32;21.90;18.60
67101;DHT22;54019;61.746;16.106;2023-03-04T08:33:58;21.90;18.80
67101;DHT22;54019;61.746;16.106;2023-03-04T08:36:23;21.80;18.60
67101;DHT22;54019;61.746;16.106;2023-03-04T08:38:49;21.80;18.50
67101;DHT22;54019;61.746;16.106;2023-03-04T08:41:16;21.80;18.60
67101;DHT22;54019;61.746;16.106;2023-03-04T08:43:42;21.70;18.70
67101;DHT22;54019;61.746;16.106;2023-03-04T08:46:07;21.70;18.80
67101;DHT22;54019;61.746;16.106;2023-03-04T08:48:33;21.70;18.80
67101;DHT22;54019;61.746;16.106;2023-03-04T08:50:58;21.70;18.80
67101;DHT22;54019;61.746;16.106;2023-03-04T08:53:24;21.80;18.80
67101;DHT22;54019;61.746;16.106;2023-03-04T08:55:50;21.80;18.70
67101;DHT22;54019;61.746;16.106;2023-03-04T08:58:17;21.80;18.80
67101;DHT22;54019;61.746;16.106;2023-03-04T09:00:43;21.80;18.70
67101;DHT22;54019;61.746;16.106;2023-03-04T09:03:09;21.80;18.80
67101;DHT22;54019;61.746;16.106;2023-03-04T09:05:36;21.80;18.80
67101;DHT22;54019;61.746;16.106;2023-03-04T09:08:01;21.80;18.80
67101;DHT22;54019;61.746;16.106;2023-03-04T09:10:27;21.80;18.70
67101;DHT22;54019;61.746;16.106;2023-03-04T09:12:52;21.70;18.80
67101;DHT22;54019;61.746;16.106;2023-03-04T09:15:22;21.60;18.80
67101;DHT22;54019;61.746;16.106;2023-03-04T09:17:47;21.60;18.90
67101;DHT22;54019;61.746;16.106;2023-03-04T09:20:13;21.60;18.90
67101;DHT22;54019;61.746;16.106;2023-03-04T09:22:39;21.50;19.00
67101;DHT22;54019;61.746;16.106;2023-03-04T09:25:05;21.50;19.00
67101;DHT22;54019;61.746;16.106;2023-03-04T09:27:31;21.40;19.10
67101;DHT22;54019;61.746;16.106;2023-03-04T09:29:56;21.50;19.20
67101;DHT22;54019;61.746;16.106;2023-03-04T09:32:23;21.40;19.10
67101;DHT22;54019;61.746;16.106;2023-03-04T09:34:49;21.40;19.10
67101;DHT22;54019;61.746;16.106;2023-03-04T09:37:14;21.50;19.20
67101;DHT22;54019;61.746;16.106;2023-03-04T09:39:40;21.50;19.20
67101;DHT22;54019;61.746;16.106;2023-03-04T09:42:06;21.50;19.20
67101;DHT22;54019;61.746;16.106;2023-03-04T09:44:33;21.60;19.10
67101;DHT22;54019;61.746;16.106;2023-03-04T09:47:01;21.70;19.00
67101;DHT22;54019;61.746;16.106;2023-03-04T09:49:29;21.70;19.00
67101;DHT22;54019;61.746;16.106;2023-03-04T09:51:56;21.70;19.00
67101;DHT22;54019;61.746;16.106;2023-03-04T09:54:30;21.70;19.00
67101;DHT22;54019;61.746;16.106;2023-03-04T09:56:58;21.70;19.00
67101;DHT22;54019;61.746;16.106;2023-03-04T09:59:26;21.60;18.90
67101;DHT22;54019;61.746;16.106;2023-03-04T10:01:54;21.60;18.90
67101;DHT22;54019;61.746;16.106;2023-03-04T10:04:25;21.60;18.90
67101;DHT22;54019;61.746;16.106;2023-03-04T10:06:54;21.60;19.00
67101;DHT22;54019;61.746;16.106;2023-03-04T10:09:21;21.60;19.00
67101;DHT22;54019;61.746;16.106;2023-03-04T10:11:49;21.50;19.00
67101;DHT22;54019;61.746;16.106;2023-03-04T10:14:21;21.50;19.00
67101;DHT22;54019;61.746;16.106;2023-03-04T10:16:52;21.50;19.00
67101;DHT22;54019;61.746;16.106;2023-03-04T10:19:24;21.60;19.00
67101;DHT22;54019;61.746;16.106;2023-03-04T10:21:50;21.60;18.80
67101;DHT22;54019;61.746;16.106;2023-03-04T10:24:18;21.70;18.90
67101;DHT22;54019;61.746;16.106;2023-03-04T10:26:45;21.70;18.80
67101;DHT22;54019;61.746;16.106;2023-03-04T10:29:12;21.80;18.70
67101;DHT22;54019;61.746;16.106;2023-03-04T10:31:39;21.90;18.70
67101;DHT22;54019;61.746;16.106;2023-03-04T10:34:05;21.90;18.60
67101;DHT22;54019;61.746;16.106;2023-03-04T10:36:38;21.90;18.70
67101;DHT22;54019;61.746;16.106;2023-03-04T10:39:08;21.90;18.70
67101;DHT22;54019;61.746;16.106;2023-03-04T10:41:40;21.80;18.60
67101;DHT22;54019;61.746;16.106;2023-03-04T10:44:11;21.80;18.70
67101;DHT22;54019;61.746;16.106;2023-03-04T10:46:39;21.70;18.70
67101;DHT22;54019;61.746;16.106;2023-03-04T10:49:05;21.70;18.80
67101;DHT22;54019;61.746;16.106;2023-03-04T10:51:30;21.60;19.10
67101;DHT22;54019;61.746;16.106;2023-03-04T10:53:56;21.60;18.70
67101;DHT22;54019;61.746;16.106;2023-03-04T10:56:33;21.60;18.60
67101;DHT22;54019;61.746;16.106;2023-03-04T11:01:41;21.50;18.90
67101;DHT22;54019;61.746;16.106;2023-03-04T11:04:08;21.50;18.80
67101;DHT22;54019;61.746;16.106;2023-03-04T11:06:41;21.50;18.70
67101;DHT22;54019;61.746;16.106;2023-03-04T11:09:16;21.50;18.70
67101;DHT22;54019;61.746;16.106;2023-03-04T11:11:44;21.60;18.80
67101;DHT22;54019;61.746;16.106;2023-03-04T11:14:11;21.60;18.70
67101;DHT22;54019;61.746;16.106;2023-03-04T11:16:37;21.70;18.60
67101;DHT22;54019;61.746;16.106;2023-03-04T11:19:05;21.80;19.20
67101;DHT22;54019;61.746;16.106;2023-03-04T11:21:36;21.80;18.80
67101;DHT22;54019;61.746;16.106;2023-03-04T11:24:03;21.80;18.90
67101;DHT22;54019;61.746;16.106;2023-03-04T11:26:32;21.80;19.00
67101;DHT22;54019;61.746;16.106;2023-03-04T11:28:59;21.80;18.90
67101;DHT22;54019;61.746;16.106;2023-03-04T11:31:27;21.70;19.00
67101;DHT22;54019;61.746;16.106;2023-03-04T11:33:54;21.60;19.10
67101;DHT22;54019;61.746;16.106;2023-03-04T11:36:24;21.60;19.00
67101;DHT22;54019;61.746;16.106;2023-03-04T11:38:53;21.60;19.10
67101;DHT22;54019;61.746;16.106;2023-03-04T11:41:19;21.60;19.10
67101;DHT22;54019;61.746;16.106;2023-03-04T11:43:46;21.60;19.20
67101;DHT22;54019;61.746;16.106;2023-03-04T11:46:28;21.50;19.20
67101;DHT22;54019;61.746;16.106;2023-03-04T11:48:57;21.50;19.30
67101;DHT22;54019;61.746;16.106;2023-03-04T11:51:27;21.50;19.30
67101;DHT22;54019;61.746;16.106;2023-03-04T11:54:05;21.60;19.40
67101;DHT22;54019;61.746;16.106;2023-03-04T11:56:33;21.60;19.50
67101;DHT22;54019;61.746;16.106;2023-03-04T12:01:46;21.80;19.60
67101;DHT22;54019;61.746;16.106;2023-03-04T12:04:23;21.90;19.40
67101;DHT22;54019;61.746;16.106;2023-03-04T12:06:57;21.90;19.40
67101;DHT22;54019;61.746;16.106;2023-03-04T12:09:28;21.90;19.40
67101;DHT22;54019;61.746;16.106;2023-03-04T12:11:57;21.90;19.50
67101;DHT22;54019;61.746;16.106;2023-03-04T12:14:25;21.90;19.40
67101;DHT22;54019;61.746;16.106;2023-03-04T12:16:59;21.80;19.20
67101;DHT22;54019;61.746;16.106;2023-03-04T12:19:30;21.80;19.30
67101;DHT22;54019;61.746;16.106;2023-03-04T12:22:11;21.70;19.10
67101;DHT22;54019;61.746;16.106;2023-03-04T12:24:46;21.60;19.20
67101;DHT22;54019;61.746;16.106;2023-03-04T12:27:17;21.50;19.50
67101;DHT22;54019;61.746;16.106;2023-03-04T12:29:44;21.50;19.40
67101;DHT22;54019;61.746;16.106;2023-03-04T12:32:13;21.50;19.60
67101;DHT22;54019;61.746;16.106;2023-03-04T12:34:45;21.40;19.50
67101;DHT22;54019;61.746;16.106;2023-03-04T12:37:23;21.40;19.70
67101;DHT22;54019;61.746;16.106;2023-03-04T12:39:58;21.50;19.60
67101;DHT22;54019;61.746;16.106;2023-03-04T12:42:27;21.50;19.60
67101;DHT22;54019;61.746;16.106;2023-03-04T12:44:55;21.70;19.50
67101;DHT22;54019;61.746;16.106;2023-03-04T12:47:28;21.70;19.30
67101;DHT22;54019;61.746;16.106;2023-03-04T12:50:02;21.80;19.30
67101;DHT22;54019;61.746;16.106;2023-03-04T12:52:33;21.80;19.30
67101;DHT22;54019;61.746;16.106;2023-03-04T12:55:01;21.80;19.20
67101;DHT22;54019;61.746;16.106;2023-03-04T12:57:27;21.80;19.30
67101;DHT22;54019;61.746;16.106;2023-03-04T12:59:54;21.70;19.40
67101;DHT22;54019;61.746;16.106;2023-03-04T13:05:02;21.70;19.30
67101;DHT22;54019;61.746;16.106;2023-03-04T13:07:39;21.60;19.40
67101;DHT22;54019;61.746;16.106;2023-03-04T13:10:08;21.60;19.60
67101;DHT22;54019;61.746;16.106;2023-03-04T13:12:44;21.60;19.70
67101;DHT22;54019;61.746;16.106;2023-03-04T13:15:26;21.50;19.80
67101;DHT22;54019;61.746;16.106;2023-03-04T13:17:53;21.50;19.70
67101;DHT22;54019;61.746;16.106;2023-03-04T13:20:21;21.50;19.70
67101;DHT22;54019;61.746;16.106;2023-03-04T13:22:52;21.50;19.50
67101;DHT22;54019;61.746;16.106;2023-03-04T13:25:31;21.50;19.60
67101;DHT22;54019;61.746;16.106;2023-03-04T13:39:35;21.80;19.20
67101;DHT22;54019;61.746;16.106;2023-03-04T13:42:02;21.80;19.20
67101;DHT22;54019;61.746;16.106;2023-03-04T13:47:26;21.70;19.20
67101;DHT22;54019;61.746;16.106;2023-03-04T13:52:36;21.70;19.40
67101;DHT22;54019;61.746;16.106;2023-03-04T13:57:48;21.50;19.20
67101;DHT22;54019;61.746;16.106;2023-03-04T14:00:15;21.50;19.30
67101;DHT22;54019;61.746;16.106;2023-03-04T14:02:40;21.40;19.30
67101;DHT22;54019;61.746;16.106;2023-03-04T14:05:10;21.40;19.30
67101;DHT22;54019;61.746;16.106;2023-03-04T14:07:36;21.40;19.30
67101;DHT22;54019;61.746;16.106;2023-03-04T14:10:02;21.40;19.30
67101;DHT22;54019;61.746;16.106;2023-03-04T14:12:28;21.40;19.30
67101;DHT22;54019;61.746;16.106;2023-03-04T14:14:56;21.50;19.30
67101;DHT22;54019;61.746;16.106;2023-03-04T14:17:23;21.60;19.30
67101;DHT22;54019;61.746;16.106;2023-03-04T14:19:49;21.60;19.00
67101;DHT22;54019;61.746;16.106;2023-03-04T14:22:19;21.70;19.10
67101;DHT22;54019;61.746;16.106;2023-03-04T14:24:54;21.80;18.90
67101;DHT22;54019;61.746;16.106;2023-03-04T14:27:19;21.80;18.80
67101;DHT22;54019;61.746;16.106;2023-03-04T14:29:49;21.90;18.90
67101;DHT22;54019;61.746;16.106;2023-03-04T14:32:20;21.80;19.00
67101;DHT22;54019;61.746;16.106;2023-03-04T14:34:45;21.90;18.90
67101;DHT22;54019;61.746;16.106;2023-03-04T14:37:20;21.90;19.90
67101;DHT22;54019;61.746;16.106;2023-03-04T14:39:46;21.90;20.40
67101;DHT22;54019;61.746;16.106;2023-03-04T14:42:12;21.90;19.70
67101;DHT22;54019;61.746;16.106;2023-03-04T14:44:39;21.80;19.50
67101;DHT22;54019;61.746;16.106;2023-03-04T14:47:08;21.80;19.50
67101;DHT22;54019;61.746;16.106;2023-03-04T14:49:36;21.80;19.50
67101;DHT22;54019;61.746;16.106;2023-03-04T14:52:02;21.80;20.00
67101;DHT22;54019;61.746;16.106;2023-03-04T14:54:37;21.70;20.00
67101;DHT22;54019;61.746;16.106;2023-03-04T14:57:19;21.80;20.50
67101;DHT22;54019;61.746;16.106;2023-03-04T14:59:44;21.80;20.20
67101;DHT22;54019;61.746;16.106;2023-03-04T15:02:15;21.80;20.20
67101;DHT22;54019;61.746;16.106;2023-03-04T15:04:43;21.80;20.10
67101;DHT22;54019;61.746;16.106;2023-03-04T15:07:11;21.90;21.40
67101;DHT22;54019;61.746;16.106;2023-03-04T15:09:39;21.80;21.00
67101;DHT22;54019;61.746;16.106;2023-03-04T15:12:05;21.80;20.80
67101;DHT22;54019;61.746;16.106;2023-03-04T15:14:42;21.80;21.00
67101;DHT22;54019;61.746;16.106;2023-03-04T15:17:18;21.80;21.10
67101;DHT22;54019;61.746;16.106;2023-03-04T15:19:48;21.80;20.70
67101;DHT22;54019;61.746;16.106;2023-03-04T15:22:21;21.80;21.20
67101;DHT22;54019;61.746;16.106;2023-03-04T15:24:47;21.70;21.40
67101;DHT22;54019;61.746;16.106;2023-03-04T15:27:12;21.70;21.80
67101;DHT22;54019;61.746;16.106;2023-03-04T15:29:38;21.70;28.10
67101;DHT22;54019;61.746;16.106;2023-03-04T15:32:04;21.70;26.50
67101;DHT22;54019;61.746;16.106;2023-03-04T15:34:29;21.70;27.70
67101;DHT22;54019;61.746;16.106;2023-03-04T15:36:56;21.60;25.40
67101;DHT22;54019;61.746;16.106;2023-03-04T15:39:23;21.70;25.30
67101;DHT22;54019;61.746;16.106;2023-03-04T15:41:49;21.70;24.70